Time;durP1;ratioP1;P1;durP2;ratioP2;P2;SDS_P1;SDS_P2;PMS_P1;PMS_P2;Temp;Humidity;BMP_temperature;BMP_pressure;BME280_temperature;BME280_humidity;BME280_pressure;Samples;Min_cycle;Max_cycle;Signal;HPM_P1;HPM_P2
2023/08/26 00:01:32;;;;;;;4.03;1.40;;;;;;;;;;4990475;28;98166;-71
2023/08/26 00:03:59;;;;;;;6.57;1.95;;;;;;;;;;4998706;28;98292;-71
2023/08/26 00:06:25;;;;;;;3.65;1.40;;;;;;;;;;5014118;28;100126;-71
2023/08/26 00:08:52;;;;;;;3.10;1.42;;;;;;;;;;5004855;28;99619;-71
2023/08/26 00:11:18;;;;;;;1.77;1.40;;;;;;;;;;4989680;28;99964;-71
2023/08/26 00:13:45;;;;;;;2.63;1.60;;;;;;;;;;4989327;28;98606;-71
2023/08/26 00:16:13;;;;;;;4.47;1.90;;;;;;;;;;4990503;28;100034;-71
2023/08/26 00:18:39;;;;;;;1.85;1.60;;;;;;;;;;4990807;28;100095;-71
2023/08/26 00:21:06;;;;;;;7.40;2.20;;;;;;;;;;4990459;28;98284;-71
2023/08/26 00:23:32;;;;;;;3.70;1.90;;;;;;;;;;4990016;28;98803;-70
2023/08/26 00:26:00;;;;;;;2.67;1.80;;;;;;;;;;5000887;28;100333;-72
2023/08/26 00:28:27;;;;;;;6.38;2.17;;;;;;;;;;5012414;28;98340;-71
2023/08/26 00:30:58;;;;;;;2.50;2.20;;;;;;;;;;5009314;28;100321;-71
2023/08/26 00:33:28;;;;;;;3.90;1.80;;;;;;;;;;5009121;28;98294;-70
2023/08/26 00:35:55;;;;;;;1.92;1.83;;;;;;;;;;4989030;28;98184;-70
2023/08/26 00:38:22;;;;;;;2.67;1.98;;;;;;;;;;4990626;28;98696;-71
2023/08/26 00:40:49;;;;;;;4.43;1.83;;;;;;;;;;4988382;28;98301;-71
2023/08/26 00:43:15;;;;;;;4.05;2.15;;;;;;;;;;4987983;28;100736;-71
2023/08/26 00:45:44;;;;;;;4.00;2.20;;;;;;;;;;4990228;28;99979;-71
2023/08/26 00:48:12;;;;;;;5.80;2.08;;;;;;;;;;4989466;28;98315;-71
2023/08/26 00:50:39;;;;;;;5.90;2.13;;;;;;;;;;4993055;28;99063;-70
2023/08/26 00:53:07;;;;;;;9.13;2.40;;;;;;;;;;4990420;28;98281;-71
2023/08/26 00:55:35;;;;;;;5.03;2.33;;;;;;;;;;4989457;28;98801;-71
2023/08/26 00:58:02;;;;;;;3.33;1.73;;;;;;;;;;4989549;28;100432;-71
2023/08/26 01:00:30;;;;;;;5.22;2.00;;;;;;;;;;4987964;28;98439;-72
2023/08/26 01:02:57;;;;;;;2.80;1.95;;;;;;;;;;4989675;28;98598;-71
2023/08/26 01:05:23;;;;;;;10.75;2.08;;;;;;;;;;4988152;28;100038;-72
2023/08/26 01:07:50;;;;;;;2.25;1.92;;;;;;;;;;4988989;28;98272;-70
2023/08/26 01:10:17;;;;;;;4.32;1.88;;;;;;;;;;4989243;28;98492;-71
2023/08/26 01:12:47;;;;;;;3.75;2.42;;;;;;;;;;5006573;28;98862;-72
2023/08/26 01:15:14;;;;;;;3.65;2.08;;;;;;;;;;5007886;28;98853;-71
2023/08/26 01:17:40;;;;;;;8.48;2.83;;;;;;;;;;5009167;28;100438;-72
2023/08/26 01:20:08;;;;;;;4.97;2.50;;;;;;;;;;5008504;28;98306;-72
2023/08/26 01:22:36;;;;;;;3.08;2.28;;;;;;;;;;5009527;28;98386;-70
2023/08/26 01:25:03;;;;;;;5.55;2.38;;;;;;;;;;5008125;28;99734;-71
2023/08/26 01:27:29;;;;;;;5.32;2.33;;;;;;;;;;5008391;28;98275;-70
2023/08/26 01:29:56;;;;;;;2.83;2.63;;;;;;;;;;5007737;28;101416;-71
2023/08/26 01:32:38;;;;;;;3.15;2.13;;;;;;;;;;5007286;28;100919;-71
2023/08/26 01:35:08;;;;;;;4.32;2.25;;;;;;;;;;4996442;28;98037;-71
2023/08/26 01:37:37;;;;;;;9.75;2.78;;;;;;;;;;4986898;28;100917;-71
2023/08/26 01:40:05;;;;;;;4.75;2.70;;;;;;;;;;4987555;28;98275;-71
2023/08/26 01:42:35;;;;;;;4.70;2.70;;;;;;;;;;4988382;28;99447;-71
2023/08/26 01:45:03;;;;;;;3.35;2.92;;;;;;;;;;4989245;28;99179;-71
2023/08/26 01:47:30;;;;;;;8.50;3.33;;;;;;;;;;5007464;28;98317;-71
2023/08/26 01:49:56;;;;;;;7.60;3.30;;;;;;;;;;5007533;28;99875;-71
2023/08/26 01:52:23;;;;;;;5.38;3.05;;;;;;;;;;5007039;28;101653;-71
2023/08/26 01:54:49;;;;;;;9.32;3.75;;;;;;;;;;5011682;28;98090;-71
2023/08/26 01:57:16;;;;;;;5.00;3.20;;;;;;;;;;5007733;28;101353;-71
2023/08/26 01:59:44;;;;;;;8.60;3.42;;;;;;;;;;5007208;28;98453;-71
2023/08/26 02:02:10;;;;;;;5.75;3.13;;;;;;;;;;5007169;28;100658;-71
2023/08/26 02:04:37;;;;;;;5.45;3.25;;;;;;;;;;4995967;28;100838;-71
2023/08/26 02:07:04;;;;;;;4.40;3.20;;;;;;;;;;4989084;28;98154;-71
2023/08/26 02:09:30;;;;;;;3.50;3.20;;;;;;;;;;4987575;28;98704;-71
2023/08/26 02:11:57;;;;;;;9.05;3.60;;;;;;;;;;4989349;28;98802;-72
2023/08/26 02:14:24;;;;;;;6.15;3.50;;;;;;;;;;4985847;28;98209;-71
2023/08/26 02:16:50;;;;;;;4.30;3.65;;;;;;;;;;4990859;28;100471;-71
2023/08/26 02:19:17;;;;;;;5.93;3.45;;;;;;;;;;4988848;28;98323;-71
2023/08/26 02:21:44;;;;;;;10.85;3.97;;;;;;;;;;5006987;28;101370;-71
2023/08/26 02:24:11;;;;;;;8.48;4.47;;;;;;;;;;5007592;28;101588;-70
2023/08/26 02:26:38;;;;;;;5.20;3.90;;;;;;;;;;5007790;28;98377;-70
2023/08/26 02:29:04;;;;;;;6.63;3.80;;;;;;;;;;5007914;28;98667;-71
2023/08/26 02:31:30;;;;;;;9.13;3.92;;;;;;;;;;5007549;28;101657;-71
2023/08/26 02:33:57;;;;;;;4.72;4.10;;;;;;;;;;5000718;28;98277;-71
2023/08/26 02:36:24;;;;;;;5.53;3.83;;;;;;;;;;4986790;28;101351;-71
2023/08/26 02:38:50;;;;;;;7.97;5.07;;;;;;;;;;4990143;28;100042;-71
2023/08/26 02:41:16;;;;;;;6.38;4.50;;;;;;;;;;4987434;28;99370;-71
2023/08/26 02:43:43;;;;;;;5.88;4.40;;;;;;;;;;4988261;28;98793;-71
2023/08/26 02:46:09;;;;;;;5.22;4.35;;;;;;;;;;4987628;28;98460;-71
2023/08/26 02:48:36;;;;;;;5.32;4.07;;;;;;;;;;4987922;28;99337;-71
2023/08/26 02:51:02;;;;;;;8.82;4.07;;;;;;;;;;4989619;28;100442;-70
2023/08/26 02:53:30;;;;;;;6.20;4.30;;;;;;;;;;4991332;28;98053;-71
2023/08/26 02:55:57;;;;;;;16.63;4.57;;;;;;;;;;4990446;28;100970;-70
2023/08/26 02:58:24;;;;;;;10.48;3.90;;;;;;;;;;4990515;28;101815;-70
2023/08/26 03:00:51;;;;;;;12.50;4.00;;;;;;;;;;4994410;28;98314;-70
2023/08/26 03:03:17;;;;;;;14.88;3.85;;;;;;;;;;4988296;28;101112;-70
2023/08/26 03:05:44;;;;;;;5.75;3.40;;;;;;;;;;4992175;28;98187;-71
2023/08/26 03:08:10;;;;;;;7.25;3.17;;;;;;;;;;4990841;28;101163;-71
2023/08/26 03:10:37;;;;;;;5.53;3.58;;;;;;;;;;4992019;28;98939;-71
2023/08/26 03:13:06;;;;;;;5.00;3.83;;;;;;;;;;4991496;28;98204;-71
2023/08/26 03:15:34;;;;;;;7.45;3.47;;;;;;;;;;4990458;28;98474;-71
2023/08/26 03:18:02;;;;;;;14.38;3.80;;;;;;;;;;4991082;28;99741;-71
2023/08/26 03:20:28;;;;;;;8.68;3.55;;;;;;;;;;4992054;28;98214;-72
2023/08/26 03:22:55;;;;;;;7.50;4.03;;;;;;;;;;4995112;28;98352;-71
2023/08/26 03:25:21;;;;;;;8.25;4.57;;;;;;;;;;4989210;28;98406;-71
2023/08/26 03:27:51;;;;;;;13.77;4.53;;;;;;;;;;4990210;28;99436;-71
2023/08/26 03:30:21;;;;;;;14.02;4.25;;;;;;;;;;4990840;28;100034;-71
2023/08/26 03:32:48;;;;;;;7.15;3.55;;;;;;;;;;4989449;28;98272;-71
2023/08/26 03:35:17;;;;;;;9.30;4.55;;;;;;;;;;5003529;28;100310;-71
2023/08/26 03:37:43;;;;;;;7.05;4.32;;;;;;;;;;4970379;28;99879;-72
2023/08/26 03:40:10;;;;;;;5.63;4.50;;;;;;;;;;4971505;28;98165;-71
2023/08/26 03:42:36;;;;;;;5.05;3.65;;;;;;;;;;4971330;28;99839;-72
2023/08/26 03:45:04;;;;;;;8.23;2.92;;;;;;;;;;4978409;28;98309;-71
2023/08/26 03:47:32;;;;;;;11.38;3.97;;;;;;;;;;4970284;28;101196;-71
2023/08/26 03:49:59;;;;;;;10.50;3.90;;;;;;;;;;4970160;28;101817;-71
2023/08/26 03:52:25;;;;;;;3.80;3.50;;;;;;;;;;4968246;28;98309;-71
2023/08/26 03:54:52;;;;;;;4.40;3.53;;;;;;;;;;4970141;28;101539;-70
2023/08/26 03:57:19;;;;;;;7.72;3.65;;;;;;;;;;4969517;28;101594;-70
2023/08/26 03:59:45;;;;;;;5.15;3.13;;;;;;;;;;4970506;28;98281;-71
2023/08/26 04:02:11;;;;;;;6.20;3.05;;;;;;;;;;4988559;28;100983;-71
2023/08/26 04:04:38;;;;;;;14.85;4.40;;;;;;;;;;4998562;28;99981;-71
2023/08/26 04:07:04;;;;;;;6.50;3.17;;;;;;;;;;4990839;28;99045;-72
2023/08/26 04:09:31;;;;;;;9.07;3.95;;;;;;;;;;4990207;28;100079;-71
2023/08/26 04:11:57;;;;;;;13.73;3.88;;;;;;;;;;4989954;28;98324;-71
2023/08/26 04:14:25;;;;;;;10.55;3.92;;;;;;;;;;4988445;28;101121;-71
2023/08/26 04:16:52;;;;;;;13.30;3.50;;;;;;;;;;4990444;28;98779;-73
2023/08/26 04:19:18;;;;;;;8.95;3.80;;;;;;;;;;5000583;28;98209;-71
2023/08/26 04:21:45;;;;;;;7.15;3.40;;;;;;;;;;5008851;28;101494;-70
2023/08/26 04:24:12;;;;;;;10.35;3.83;;;;;;;;;;5009225;28;100364;-71
2023/08/26 04:26:39;;;;;;;11.30;3.70;;;;;;;;;;5012717;28;98297;-71
2023/08/26 04:29:06;;;;;;;10.00;3.53;;;;;;;;;;5008602;28;100853;-73
2023/08/26 04:31:32;;;;;;;9.05;3.40;;;;;;;;;;5009164;28;98232;-72
2023/08/26 04:33:59;;;;;;;9.73;4.15;;;;;;;;;;4996235;28;101170;-71
2023/08/26 04:36:27;;;;;;;5.20;3.40;;;;;;;;;;4989183;28;101676;-71
2023/08/26 04:38:53;;;;;;;3.55;3.25;;;;;;;;;;4989344;28;98126;-71
2023/08/26 04:41:20;;;;;;;5.30;3.72;;;;;;;;;;4986032;28;100427;-72
2023/08/26 04:43:47;;;;;;;9.73;4.32;;;;;;;;;;4988813;28;101606;-71
2023/08/26 04:46:14;;;;;;;9.07;3.42;;;;;;;;;;4988816;28;98569;-72
2023/08/26 04:48:41;;;;;;;3.88;3.47;;;;;;;;;;4991112;28;98859;-72
2023/08/26 04:51:07;;;;;;;9.13;4.00;;;;;;;;;;4990374;28;98180;-71
2023/08/26 04:53:34;;;;;;;5.53;3.58;;;;;;;;;;5000378;28;100369;-71
2023/08/26 04:56:02;;;;;;;5.72;3.75;;;;;;;;;;5009175;28;98945;-71
2023/08/26 04:58:30;;;;;;;10.48;4.13;;;;;;;;;;5008519;28;98032;-71
2023/08/26 05:00:57;;;;;;;6.80;3.60;;;;;;;;;;5009088;28;101004;-73
2023/08/26 05:03:24;;;;;;;9.25;4.13;;;;;;;;;;5001324;28;101576;-72
2023/08/26 05:05:50;;;;;;;7.95;3.95;;;;;;;;;;4989111;28;98228;-71
2023/08/26 05:08:17;;;;;;;3.85;3.55;;;;;;;;;;4990308;28;98575;-72
2023/08/26 05:10:43;;;;;;;8.98;3.95;;;;;;;;;;5004387;28;102043;-72
2023/08/26 05:13:10;;;;;;;10.13;4.00;;;;;;;;;;5009016;28;99421;-71
2023/08/26 05:15:36;;;;;;;14.85;4.10;;;;;;;;;;5008620;28;100866;-72
2023/08/26 05:18:03;;;;;;;7.80;3.55;;;;;;;;;;5009448;28;98216;-72
2023/08/26 05:20:30;;;;;;;12.43;3.67;;;;;;;;;;5011618;28;100745;-72
2023/08/26 05:22:57;;;;;;;5.55;3.40;;;;;;;;;;5008546;28;100633;-72
2023/08/26 05:25:24;;;;;;;6.60;3.47;;;;;;;;;;5007282;28;98298;-71
2023/08/26 05:27:50;;;;;;;4.55;3.75;;;;;;;;;;5007936;28;101208;-71
2023/08/26 05:30:18;;;;;;;10.98;4.10;;;;;;;;;;5006431;28;100291;-71
2023/08/26 05:32:52;;;;;;;10.60;4.22;;;;;;;;;;5006701;28;98337;-72
2023/08/26 05:35:18;;;;;;;7.07;3.42;;;;;;;;;;4988900;28;98896;-73
2023/08/26 05:37:45;;;;;;;9.52;3.67;;;;;;;;;;4989082;28;98487;-72
2023/08/26 05:40:12;;;;;;;5.30;3.90;;;;;;;;;;4988138;28;101145;-71
2023/08/26 05:42:39;;;;;;;11.77;3.25;;;;;;;;;;4999566;28;101605;-71
2023/08/26 05:45:06;;;;;;;16.85;4.68;;;;;;;;;;4990950;28;98307;-72
2023/08/26 05:47:32;;;;;;;6.05;3.58;;;;;;;;;;4988194;28;101096;-70
2023/08/26 05:49:59;;;;;;;6.25;3.53;;;;;;;;;;4989237;28;100110;-70
2023/08/26 05:52:26;;;;;;;9.23;4.18;;;;;;;;;;4990600;28;98562;-72
2023/08/26 05:54:52;;;;;;;4.75;3.75;;;;;;;;;;4988750;28;98782;-72
2023/08/26 05:57:19;;;;;;;7.97;3.70;;;;;;;;;;4981126;28;99484;-70
2023/08/26 05:59:45;;;;;;;6.38;3.40;;;;;;;;;;4974366;28;100565;-71
2023/08/26 06:02:12;;;;;;;4.97;3.92;;;;;;;;;;4979429;28;101903;-71
2023/08/26 06:04:38;;;;;;;4.45;3.58;;;;;;;;;;4968114;28;100178;-71
2023/08/26 06:07:06;;;;;;;7.90;3.28;;;;;;;;;;4973717;28;99320;-71
2023/08/26 06:09:32;;;;;;;6.60;3.65;;;;;;;;;;4980386;28;98955;-72
2023/08/26 06:11:59;;;;;;;10.90;3.15;;;;;;;;;;4979250;28;99463;-71
2023/08/26 06:14:26;;;;;;;6.68;3.67;;;;;;;;;;4989623;28;100982;-72
2023/08/26 06:16:53;;;;;;;7.88;3.70;;;;;;;;;;4988241;28;98209;-71
2023/08/26 06:19:19;;;;;;;6.32;3.00;;;;;;;;;;4978632;28;98503;-71
2023/08/26 06:21:46;;;;;;;4.43;2.58;;;;;;;;;;4973996;28;100182;-71
2023/08/26 06:24:12;;;;;;;11.90;2.85;;;;;;;;;;4980874;28;99395;-72
2023/08/26 06:26:39;;;;;;;12.80;3.20;;;;;;;;;;4988980;28;98870;-72
2023/08/26 06:29:05;;;;;;;11.50;3.13;;;;;;;;;;4971295;28;100106;-72
2023/08/26 06:31:32;;;;;;;11.23;3.17;;;;;;;;;;4987604;28;98250;-72
2023/08/26 06:33:58;;;;;;;8.38;3.38;;;;;;;;;;4985482;28;101055;-72
2023/08/26 06:36:26;;;;;;;7.72;3.10;;;;;;;;;;4994654;28;99097;-71
2023/08/26 06:38:52;;;;;;;4.78;2.78;;;;;;;;;;4992419;28;98501;-72
2023/08/26 06:41:19;;;;;;;6.95;2.25;;;;;;;;;;4988524;28;102096;-71
2023/08/26 06:43:45;;;;;;;6.18;2.65;;;;;;;;;;4990332;28;98565;-72
2023/08/26 06:46:19;;;;;;;5.15;2.70;;;;;;;;;;4990848;28;100506;-72
2023/08/26 06:48:46;;;;;;;4.53;2.60;;;;;;;;;;4986395;28;100827;-72
2023/08/26 06:51:12;;;;;;;12.18;3.22;;;;;;;;;;4972398;28;97961;-71
2023/08/26 06:53:39;;;;;;;4.80;2.47;;;;;;;;;;4972253;28;99496;-74
2023/08/26 06:56:05;;;;;;;8.38;2.63;;;;;;;;;;4970141;28;101607;-72
2023/08/26 06:58:32;;;;;;;6.93;2.92;;;;;;;;;;4975166;28;98250;-71
2023/08/26 07:00:58;;;;;;;15.45;2.83;;;;;;;;;;4972362;28;100023;-72
2023/08/26 07:03:25;;;;;;;3.78;2.28;;;;;;;;;;4970933;28;98406;-71
2023/08/26 07:05:52;;;;;;;4.80;2.33;;;;;;;;;;4972248;28;99465;-72
2023/08/26 07:08:18;;;;;;;3.85;2.28;;;;;;;;;;4970810;28;98886;-72
2023/08/26 07:10:45;;;;;;;7.28;2.70;;;;;;;;;;4971949;28;98257;-72
2023/08/26 07:13:12;;;;;;;5.50;2.97;;;;;;;;;;4971495;28;99493;-72
2023/08/26 07:15:39;;;;;;;5.40;2.75;;;;;;;;;;4981782;28;99943;-71
2023/08/26 07:18:05;;;;;;;6.40;2.00;;;;;;;;;;4975667;28;97903;-71
2023/08/26 07:20:32;;;;;;;5.72;2.25;;;;;;;;;;4973745;28;101466;-71
2023/08/26 07:22:58;;;;;;;6.70;2.05;;;;;;;;;;4982149;28;98384;-72
2023/08/26 07:25:24;;;;;;;7.57;2.15;;;;;;;;;;4971812;28;99316;-72
2023/08/26 07:27:51;;;;;;;7.68;2.40;;;;;;;;;;4984873;28;99832;-72
2023/08/26 07:30:18;;;;;;;6.55;1.83;;;;;;;;;;4991019;28;98427;-72
2023/08/26 07:32:44;;;;;;;7.35;2.10;;;;;;;;;;4981878;28;99536;-71
2023/08/26 07:35:10;;;;;;;2.33;2.15;;;;;;;;;;4991042;28;99024;-71
2023/08/26 07:37:37;;;;;;;2.08;1.90;;;;;;;;;;4990597;28;98287;-72
2023/08/26 07:40:07;;;;;;;12.15;2.60;;;;;;;;;;4992107;28;98443;-71
2023/08/26 07:42:34;;;;;;;13.40;3.25;;;;;;;;;;4994225;28;99921;-70
2023/08/26 07:45:01;;;;;;;3.85;2.10;;;;;;;;;;4990773;28;98493;-71
2023/08/26 07:47:27;;;;;;;6.18;1.90;;;;;;;;;;4990672;28;100030;-71
2023/08/26 07:50:14;;;;;;;5.38;1.83;;;;;;;;;;4991355;28;98038;-71
2023/08/26 07:52:40;;;;;;;8.52;3.55;;;;;;;;;;4990438;28;100087;-71
2023/08/26 07:55:07;;;;;;;5.90;2.25;;;;;;;;;;4990907;28;99170;-71
2023/08/26 07:57:34;;;;;;;4.47;1.80;;;;;;;;;;4990466;28;98473;-71
2023/08/26 08:00:02;;;;;;;5.13;1.75;;;;;;;;;;4990408;28;98657;-71
2023/08/26 08:02:37;;;;;;;3.22;1.98;;;;;;;;;;4991994;28;98434;-71
2023/08/26 08:05:04;;;;;;;7.75;2.22;;;;;;;;;;4990413;28;98684;-71
2023/08/26 08:07:30;;;;;;;7.88;2.33;;;;;;;;;;4990683;28;100024;-71
2023/08/26 08:09:57;;;;;;;5.47;2.05;;;;;;;;;;4991866;28;98229;-71
2023/08/26 08:12:23;;;;;;;9.05;2.67;;;;;;;;;;4989780;28;98974;-71
2023/08/26 08:14:49;;;;;;;4.55;2.10;;;;;;;;;;4990275;28;99229;-71
2023/08/26 08:17:16;;;;;;;4.40;2.22;;;;;;;;;;4990934;28;99166;-71
2023/08/26 08:19:45;;;;;;;5.70;2.20;;;;;;;;;;4990096;28;99395;-71
2023/08/26 08:22:16;;;;;;;3.78;1.95;;;;;;;;;;4989752;28;100482;-70
2023/08/26 08:24:45;;;;;;;3.28;1.80;;;;;;;;;;4994147;28;98059;-70
2023/08/26 08:27:12;;;;;;;5.20;2.25;;;;;;;;;;4989257;28;99775;-71
2023/08/26 08:29:38;;;;;;;6.75;2.47;;;;;;;;;;4976723;28;99307;-70
2023/08/26 08:32:05;;;;;;;3.38;2.13;;;;;;;;;;4975172;28;98577;-71
2023/08/26 08:34:31;;;;;;;3.38;1.75;;;;;;;;;;4983360;28;99913;-71
2023/08/26 08:36:57;;;;;;;2.05;1.75;;;;;;;;;;4970751;28;98517;-71
2023/08/26 08:39:24;;;;;;;3.05;1.65;;;;;;;;;;4970548;28;98623;-72
2023/08/26 08:41:51;;;;;;;4.30;1.73;;;;;;;;;;4974579;28;99504;-72
2023/08/26 08:44:18;;;;;;;6.07;1.80;;;;;;;;;;4990374;28;98190;-72
2023/08/26 08:46:45;;;;;;;2.15;1.92;;;;;;;;;;4972959;28;98579;-70
2023/08/26 08:49:12;;;;;;;3.00;1.77;;;;;;;;;;4968699;28;98196;-70
2023/08/26 08:51:38;;;;;;;3.15;1.60;;;;;;;;;;4970555;28;98835;-72
2023/08/26 08:54:06;;;;;;;2.28;1.77;;;;;;;;;;4970830;28;99050;-70
2023/08/26 08:56:32;;;;;;;5.15;2.47;;;;;;;;;;4970915;28;98231;-72
2023/08/26 08:58:59;;;;;;;6.95;1.85;;;;;;;;;;4972735;28;98062;-70
2023/08/26 09:01:26;;;;;;;6.60;2.28;;;;;;;;;;4970690;28;99055;-73
2023/08/26 09:03:52;;;;;;;3.08;1.45;;;;;;;;;;4970647;28;98312;-71
2023/08/26 09:06:19;;;;;;;6.93;2.33;;;;;;;;;;4970036;28;99583;-70
2023/08/26 09:08:46;;;;;;;3.15;2.45;;;;;;;;;;4972924;28;99074;-71
2023/08/26 09:11:12;;;;;;;5.45;1.50;;;;;;;;;;4968996;28;99770;-71
2023/08/26 09:13:40;;;;;;;3.15;1.52;;;;;;;;;;4969847;28;98894;-70
2023/08/26 09:16:07;;;;;;;1.80;1.27;;;;;;;;;;4969588;28;98255;-70
2023/08/26 09:18:38;;;;;;;2.95;1.10;;;;;;;;;;4969767;28;99787;-70
2023/08/26 09:21:08;;;;;;;3.25;1.77;;;;;;;;;;4970078;28;100111;-71
2023/08/26 09:23:42;;;;;;;4.75;1.77;;;;;;;;;;4968820;28;98418;-70
2023/08/26 09:26:08;;;;;;;3.80;1.83;;;;;;;;;;4970747;28;98452;-70
2023/08/26 09:28:36;;;;;;;4.13;2.22;;;;;;;;;;4969522;28;100412;-72
2023/08/26 09:31:04;;;;;;;5.40;1.98;;;;;;;;;;4972164;28;98300;-71
2023/08/26 09:33:31;;;;;;;4.68;1.30;;;;;;;;;;4969571;28;99897;-71
2023/08/26 09:35:58;;;;;;;1.83;1.70;;;;;;;;;;4980385;28;100966;-71
2023/08/26 09:38:31;;;;;;;2.00;1.70;;;;;;;;;;4982522;28;99831;-71
2023/08/26 09:40:58;;;;;;;1.90;1.60;;;;;;;;;;4975255;28;99316;-71
2023/08/26 09:43:24;;;;;;;3.28;1.80;;;;;;;;;;4967684;28;98340;-72
2023/08/26 09:45:55;;;;;;;3.13;1.63;;;;;;;;;;4968861;28;98796;-72
2023/08/26 09:48:22;;;;;;;2.83;1.77;;;;;;;;;;4983105;28;100061;-72
2023/08/26 09:50:48;;;;;;;4.15;2.03;;;;;;;;;;4986600;28;98535;-72
2023/08/26 09:53:27;;;;;;;1.90;1.80;;;;;;;;;;4992510;28;99058;-72
2023/08/26 09:55:53;;;;;;;2.55;2.40;;;;;;;;;;4989723;28;98335;-71
2023/08/26 09:58:20;;;;;;;2.30;2.03;;;;;;;;;;4988168;28;98991;-71
2023/08/26 10:00:50;;;;;;;3.72;2.60;;;;;;;;;;4987170;28;99229;-73
2023/08/26 10:03:18;;;;;;;6.15;2.40;;;;;;;;;;4988934;28;98197;-72
2023/08/26 10:05:46;;;;;;;3.15;2.17;;;;;;;;;;4988623;28;98681;-71
2023/08/26 10:08:12;;;;;;;1.88;1.75;;;;;;;;;;4989209;28;98981;-72
2023/08/26 10:10:39;;;;;;;2.38;2.17;;;;;;;;;;4989175;28;98331;-71
2023/08/26 10:13:06;;;;;;;2.20;2.10;;;;;;;;;;4991190;28;98511;-71
2023/08/26 10:15:33;;;;;;;4.18;2.42;;;;;;;;;;4988702;28;98099;-72
2023/08/26 10:18:06;;;;;;;1.90;1.80;;;;;;;;;;4989198;28;99252;-72
2023/08/26 10:20:33;;;;;;;1.83;1.73;;;;;;;;;;4987906;28;99862;-72
2023/08/26 10:23:00;;;;;;;2.95;2.20;;;;;;;;;;4988984;28;98104;-72
2023/08/26 10:25:28;;;;;;;2.42;2.20;;;;;;;;;;4988009;28;99318;-72
2023/08/26 10:27:54;;;;;;;2.40;2.20;;;;;;;;;;4988133;28;99923;-72
2023/08/26 10:30:21;;;;;;;4.28;2.08;;;;;;;;;;4988327;28;98254;-72
2023/08/26 10:32:57;;;;;;;1.65;1.55;;;;;;;;;;4988207;28;100055;-71
2023/08/26 10:35:25;;;;;;;2.67;1.73;;;;;;;;;;4991866;28;99094;-71
2023/08/26 10:37:53;;;;;;;5.32;2.30;;;;;;;;;;4989065;28;99386;-72
2023/08/26 10:40:30;;;;;;;2.20;2.10;;;;;;;;;;4987709;28;100653;-71
2023/08/26 10:43:04;;;;;;;3.35;2.25;;;;;;;;;;4989324;28;98254;-72
2023/08/26 10:45:31;;;;;;;3.88;2.40;;;;;;;;;;4988719;28;98721;-71
2023/08/26 10:47:58;;;;;;;3.80;2.20;;;;;;;;;;4987861;28;99879;-72
2023/08/26 10:50:25;;;;;;;4.30;2.20;;;;;;;;;;4987828;28;98284;-72
2023/08/26 10:52:54;;;;;;;2.00;1.75;;;;;;;;;;4990632;28;98988;-71
2023/08/26 10:55:21;;;;;;;3.70;1.73;;;;;;;;;;4988726;28;100132;-72
2023/08/26 10:58:16;;;;;;;2.45;1.52;;;;;;;;;;4992092;28;98276;-71
2023/08/26 11:00:50;;;;;;;1.80;1.10;;;;;;;;;;4987046;28;100174;-71
2023/08/26 11:03:18;;;;;;;1.50;1.23;;;;;;;;;;4988377;28;98078;-72
2023/08/26 11:05:45;;;;;;;3.20;1.67;;;;;;;;;;4988415;28;99283;-71
2023/08/26 11:08:12;;;;;;;1.83;1.50;;;;;;;;;;4987596;28;99943;-71
2023/08/26 11:10:40;;;;;;;3.72;1.75;;;;;;;;;;4988685;28;98177;-71
2023/08/26 11:13:07;;;;;;;5.90;2.15;;;;;;;;;;4991316;28;101481;-73
2023/08/26 11:15:39;;;;;;;3.65;1.92;;;;;;;;;;4990046;28;100158;-70
2023/08/26 11:18:08;;;;;;;1.80;1.70;;;;;;;;;;4991506;28;98202;-70
2023/08/26 11:20:39;;;;;;;5.10;3.67;;;;;;;;;;4995265;28;99578;-71
2023/08/26 11:23:10;;;;;;;6.32;2.00;;;;;;;;;;4991123;28;98432;-70
2023/08/26 11:25:38;;;;;;;5.50;1.50;;;;;;;;;;4991115;28;98597;-70
2023/08/26 11:28:08;;;;;;;3.97;2.22;;;;;;;;;;4991554;28;99973;-71
2023/08/26 11:30:48;;;;;;;1.58;1.48;;;;;;;;;;4990708;28;98375;-71
2023/08/26 11:33:16;;;;;;;1.85;1.65;;;;;;;;;;4971047;28;99632;-72
2023/08/26 11:35:44;;;;;;;2.00;1.90;;;;;;;;;;4970970;28;99222;-70
2023/08/26 11:38:24;;;;;;;3.15;1.73;;;;;;;;;;4971381;28;98199;-70
2023/08/26 11:40:52;;;;;;;1.77;1.42;;;;;;;;;;4970915;28;99665;-70
2023/08/26 11:43:23;;;;;;;1.80;1.35;;;;;;;;;;4972273;28;100450;-70
2023/08/26 11:45:55;;;;;;;1.63;1.50;;;;;;;;;;4971517;28;98472;-69
2023/08/26 11:48:24;;;;;;;3.33;1.30;;;;;;;;;;4971523;28;100530;-69
2023/08/26 11:51:00;;;;;;;1.50;1.40;;;;;;;;;;4969671;28;98291;-70
2023/08/26 11:53:29;;;;;;;1.80;1.60;;;;;;;;;;4986160;28;99486;-70
2023/08/26 11:55:59;;;;;;;1.67;1.55;;;;;;;;;;4980341;28;100156;-71
2023/08/26 11:58:27;;;;;;;1.10;1.10;;;;;;;;;;4982537;28;98224;-69
2023/08/26 12:00:58;;;;;;;1.55;1.45;;;;;;;;;;4971207;28;101174;-70
2023/08/26 12:03:28;;;;;;;2.63;1.30;;;;;;;;;;4969049;28;99339;-71
2023/08/26 12:05:59;;;;;;;1.95;1.30;;;;;;;;;;4973313;28;98358;-70
2023/08/26 12:08:44;;;;;;;3.28;1.48;;;;;;;;;;4970038;28;99278;-70
2023/08/26 12:11:14;;;;;;;2.33;1.65;;;;;;;;;;4968993;28;98524;-69
2023/08/26 12:13:50;;;;;;;10.82;1.30;;;;;;;;;;4969712;28;99445;-69
2023/08/26 12:16:21;;;;;;;2.65;1.58;;;;;;;;;;4970874;28;99922;-70
2023/08/26 12:18:53;;;;;;;2.03;1.50;;;;;;;;;;4970540;28;98223;-70
2023/08/26 12:21:24;;;;;;;1.83;1.38;;;;;;;;;;4970774;28;98393;-69
2023/08/26 12:23:54;;;;;;;5.22;3.05;;;;;;;;;;4969373;28;99814;-72
2023/08/26 12:26:23;;;;;;;5.80;1.30;;;;;;;;;;4972783;28;98266;-70
2023/08/26 12:28:49;;;;;;;2.58;1.30;;;;;;;;;;4970472;28;99860;-70
2023/08/26 12:31:19;;;;;;;4.45;1.55;;;;;;;;;;4972347;28;98262;-71
2023/08/26 12:33:46;;;;;;;3.53;2.15;;;;;;;;;;4988799;28;99632;-70
2023/08/26 12:36:25;;;;;;;10.93;2.00;;;;;;;;;;4977100;28;100066;-71
2023/08/26 12:38:54;;;;;;;6.18;2.40;;;;;;;;;;4991333;28;98262;-73
2023/08/26 12:41:20;;;;;;;5.25;2.45;;;;;;;;;;4979298;28;99670;-73
2023/08/26 12:43:46;;;;;;;6.85;2.90;;;;;;;;;;4971031;28;99050;-73
2023/08/26 12:46:13;;;;;;;8.18;2.92;;;;;;;;;;4975093;28;99050;-72
2023/08/26 12:48:39;;;;;;;7.18;2.70;;;;;;;;;;4992202;28;99196;-71
2023/08/26 12:51:09;;;;;;;3.53;2.63;;;;;;;;;;4982720;28;99078;-71
2023/08/26 12:53:36;;;;;;;4.57;2.30;;;;;;;;;;4967392;28;100724;-71
2023/08/26 12:56:03;;;;;;;8.32;2.65;;;;;;;;;;4967631;28;99251;-70
2023/08/26 12:58:29;;;;;;;3.10;2.80;;;;;;;;;;4967594;28;100251;-72
2023/08/26 13:00:56;;;;;;;3.53;2.00;;;;;;;;;;4967983;28;99349;-72
2023/08/26 13:03:23;;;;;;;2.90;2.28;;;;;;;;;;4967636;28;100175;-71
2023/08/26 13:05:51;;;;;;;2.42;2.10;;;;;;;;;;4968149;28;101142;-70
2023/08/26 13:08:18;;;;;;;2.53;1.92;;;;;;;;;;4966486;28;100364;-71
2023/08/26 13:10:44;;;;;;;2.97;1.83;;;;;;;;;;4985694;28;98979;-71
2023/08/26 13:13:11;;;;;;;4.40;1.83;;;;;;;;;;4972498;28;98991;-70
2023/08/26 13:15:41;;;;;;;3.60;2.28;;;;;;;;;;4986861;28;100623;-70
2023/08/26 13:18:07;;;;;;;1.85;1.75;;;;;;;;;;4987608;28;99031;-70
2023/08/26 13:20:34;;;;;;;2.95;1.98;;;;;;;;;;4986667;28;100929;-71
2023/08/26 13:23:02;;;;;;;2.72;1.90;;;;;;;;;;4986832;28;100031;-72
2023/08/26 13:25:29;;;;;;;3.90;2.15;;;;;;;;;;4987196;28;98915;-72
2023/08/26 13:27:56;;;;;;;5.57;2.33;;;;;;;;;;4987676;28;99379;-72
2023/08/26 13:30:22;;;;;;;2.63;2.20;;;;;;;;;;4987101;28;99836;-72
2023/08/26 13:32:50;;;;;;;2.17;2.08;;;;;;;;;;4992464;28;99111;-70
2023/08/26 13:35:17;;;;;;;2.72;2.33;;;;;;;;;;4987710;28;100452;-71
2023/08/26 13:37:43;;;;;;;2.38;2.20;;;;;;;;;;4987405;28;99360;-71
2023/08/26 13:40:10;;;;;;;5.70;2.83;;;;;;;;;;4987073;28;99617;-71
2023/08/26 13:42:37;;;;;;;2.75;2.55;;;;;;;;;;4974065;28;100100;-71
2023/08/26 13:45:03;;;;;;;4.25;2.10;;;;;;;;;;4966934;28;100105;-71
2023/08/26 13:47:29;;;;;;;3.88;2.40;;;;;;;;;;4967176;28;100272;-71
2023/08/26 13:49:56;;;;;;;2.50;2.30;;;;;;;;;;4967170;28;99185;-71
2023/08/26 13:52:22;;;;;;;2.92;2.13;;;;;;;;;;4967510;28;99137;-71
2023/08/26 13:54:49;;;;;;;3.35;2.55;;;;;;;;;;4970753;28;100165;-72
2023/08/26 13:57:16;;;;;;;2.45;2.30;;;;;;;;;;4966345;28;100629;-72
2023/08/26 13:59:42;;;;;;;2.63;2.38;;;;;;;;;;4967572;28;100264;-70
2023/08/26 14:02:09;;;;;;;2.97;1.88;;;;;;;;;;4968360;28;98913;-72
2023/08/26 14:04:35;;;;;;;2.33;1.70;;;;;;;;;;4966159;28;98947;-71
2023/08/26 14:07:02;;;;;;;2.10;1.90;;;;;;;;;;4967122;28;100218;-72
2023/08/26 14:09:28;;;;;;;1.77;1.67;;;;;;;;;;4966404;28;100009;-71
2023/08/26 14:11:57;;;;;;;2.40;1.67;;;;;;;;;;4966428;28;100630;-71
2023/08/26 14:14:24;;;;;;;2.25;1.75;;;;;;;;;;4966594;28;99450;-71
2023/08/26 14:16:50;;;;;;;3.42;2.00;;;;;;;;;;4970460;28;98523;-71
2023/08/26 14:19:17;;;;;;;4.28;2.67;;;;;;;;;;4966402;28;99537;-71
2023/08/26 14:21:43;;;;;;;2.03;1.92;;;;;;;;;;4967216;28;100191;-71
2023/08/26 14:24:10;;;;;;;3.05;2.05;;;;;;;;;;4982498;28;99074;-70
2023/08/26 14:26:36;;;;;;;2.92;2.65;;;;;;;;;;4970854;28;99509;-70
2023/08/26 14:29:03;;;;;;;3.92;1.75;;;;;;;;;;4966877;28;98785;-71
2023/08/26 14:31:29;;;;;;;2.33;2.10;;;;;;;;;;4966468;28;99916;-71
2023/08/26 14:33:56;;;;;;;3.50;1.63;;;;;;;;;;4965676;28;100169;-71
2023/08/26 14:36:22;;;;;;;1.67;1.58;;;;;;;;;;4969948;28;99755;-71
2023/08/26 14:38:48;;;;;;;3.33;1.33;;;;;;;;;;4966045;28;100258;-71
2023/08/26 14:41:15;;;;;;;1.20;1.17;;;;;;;;;;4976741;28;99074;-71